sensor_id;sensor_type;location;lat;lon;timestamp;temperature;humidity
28484;DHT22;15704;48.834;8.736;2023-02-28T00:01:13;-3.00;99.90
28484;DHT22;15704;48.834;8.736;2023-02-28T00:03:40;-3.00;99.90
28484;DHT22;15704;48.834;8.736;2023-02-28T00:06:08;-3.10;99.90
28484;DHT22;15704;48.834;8.736;2023-02-28T00:08:37;-3.10;99.90
28484;DHT22;15704;48.834;8.736;2023-02-28T00:11:06;-3.20;99.90
28484;DHT22;15704;48.834;8.736;2023-02-28T00:13:38;-3.20;99.90
28484;DHT22;15704;48.834;8.736;2023-02-28T00:16:06;-3.20;99.90
28484;DHT22;15704;48.834;8.736;2023-02-28T00:18:33;-3.20;99.90
28484;DHT22;15704;48.834;8.736;2023-02-28T00:21:00;-3.20;99.90
28484;DHT22;15704;48.834;8.736;2023-02-28T00:23:29;-3.20;99.90
28484;DHT22;15704;48.834;8.736;2023-02-28T00:25:58;-3.30;99.90
28484;DHT22;15704;48.834;8.736;2023-02-28T00:28:25;-3.30;99.90
28484;DHT22;15704;48.834;8.736;2023-02-28T00:30:52;-3.30;99.90
28484;DHT22;15704;48.834;8.736;2023-02-28T00:33:22;-3.30;99.90
28484;DHT22;15704;48.834;8.736;2023-02-28T00:36:05;-3.30;99.90
28484;DHT22;15704;48.834;8.736;2023-02-28T00:38:39;-3.40;99.90
28484;DHT22;15704;48.834;8.736;2023-02-28T00:41:13;-3.40;99.90
28484;DHT22;15704;48.834;8.736;2023-02-28T00:43:40;-3.40;99.90
28484;DHT22;15704;48.834;8.736;2023-02-28T00:46:07;-3.50;99.90
28484;DHT22;15704;48.834;8.736;2023-02-28T00:48:34;-3.50;99.90
28484;DHT22;15704;48.834;8.736;2023-02-28T00:51:04;-3.50;99.90
28484;DHT22;15704;48.834;8.736;2023-02-28T00:53:34;-3.50;99.90
28484;DHT22;15704;48.834;8.736;2023-02-28T00:56:01;-3.50;99.90
28484;DHT22;15704;48.834;8.736;2023-02-28T00:58:28;-3.50;99.90
28484;DHT22;15704;48.834;8.736;2023-02-28T01:00:55;-3.50;99.90
28484;DHT22;15704;48.834;8.736;2023-02-28T01:03:26;-3.50;99.90
28484;DHT22;15704;48.834;8.736;2023-02-28T01:05:56;-3.50;99.90
28484;DHT22;15704;48.834;8.736;2023-02-28T01:08:23;-3.50;99.90
28484;DHT22;15704;48.834;8.736;2023-02-28T01:11:09;-3.50;99.90
28484;DHT22;15704;48.834;8.736;2023-02-28T01:13:44;-3.50;99.90
28484;DHT22;15704;48.834;8.736;2023-02-28T01:16:12;-3.50;99.90
28484;DHT22;15704;48.834;8.736;2023-02-28T01:18:39;-3.60;99.90
28484;DHT22;15704;48.834;8.736;2023-02-28T01:21:08;-3.60;99.90
28484;DHT22;15704;48.834;8.736;2023-02-28T01:23:35;-3.60;99.90
28484;DHT22;15704;48.834;8.736;2023-02-28T01:26:11;-3.60;99.90
28484;DHT22;15704;48.834;8.736;2023-02-28T01:28:38;-3.60;99.90
28484;DHT22;15704;48.834;8.736;2023-02-28T01:31:05;-3.60;99.90
28484;DHT22;15704;48.834;8.736;2023-02-28T01:33:32;-3.70;99.90
28484;DHT22;15704;48.834;8.736;2023-02-28T01:36:10;-3.70;99.90
28484;DHT22;15704;48.834;8.736;2023-02-28T01:38:37;-3.70;99.90
28484;DHT22;15704;48.834;8.736;2023-02-28T01:41:05;-3.70;99.90
28484;DHT22;15704;48.834;8.736;2023-02-28T01:46:10;-3.70;99.90
28484;DHT22;15704;48.834;8.736;2023-02-28T01:48:46;-3.70;99.90
28484;DHT22;15704;48.834;8.736;2023-02-28T01:51:29;-3.70;99.90
28484;DHT22;15704;48.834;8.736;2023-02-28T01:54:05;-3.80;99.90
28484;DHT22;15704;48.834;8.736;2023-02-28T01:56:44;-3.80;99.90
28484;DHT22;15704;48.834;8.736;2023-02-28T01:59:22;-3.80;99.90
28484;DHT22;15704;48.834;8.736;2023-02-28T02:01:49;-3.80;99.90
28484;DHT22;15704;48.834;8.736;2023-02-28T02:04:24;-3.80;99.90
28484;DHT22;15704;48.834;8.736;2023-02-28T02:06:58;-3.80;99.90
28484;DHT22;15704;48.834;8.736;2023-02-28T02:09:39;-3.80;99.90
28484;DHT22;15704;48.834;8.736;2023-02-28T02:15:26;-3.90;99.90
28484;DHT22;15704;48.834;8.736;2023-02-28T02:17:59;-3.90;99.90
28484;DHT22;15704;48.834;8.736;2023-02-28T02:31:51;-3.90;99.90
28484;DHT22;15704;48.834;8.736;2023-02-28T02:34:28;-3.90;99.90
28484;DHT22;15704;48.834;8.736;2023-02-28T02:39:54;-3.90;99.90
28484;DHT22;15704;48.834;8.736;2023-02-28T02:45:39;-3.90;99.90
28484;DHT22;15704;48.834;8.736;2023-02-28T02:48:21;-3.80;99.90
28484;DHT22;15704;48.834;8.736;2023-02-28T02:51:02;-3.80;99.90
28484;DHT22;15704;48.834;8.736;2023-02-28T02:53:40;-3.80;99.90
28484;DHT22;15704;48.834;8.736;2023-02-28T02:56:08;-3.80;99.90
28484;DHT22;15704;48.834;8.736;2023-02-28T02:58:40;-3.80;99.90
28484;DHT22;15704;48.834;8.736;2023-02-28T03:01:12;-3.90;99.90
28484;DHT22;15704;48.834;8.736;2023-02-28T03:03:50;-3.90;99.90
28484;DHT22;15704;48.834;8.736;2023-02-28T03:06:16;-3.90;99.90
28484;DHT22;15704;48.834;8.736;2023-02-28T03:08:43;-3.90;99.90
28484;DHT22;15704;48.834;8.736;2023-02-28T03:11:14;-3.90;99.90
28484;DHT22;15704;48.834;8.736;2023-02-28T03:14:20;-3.90;99.90
28484;DHT22;15704;48.834;8.736;2023-02-28T03:22:53;-3.90;99.90
28484;DHT22;15704;48.834;8.736;2023-02-28T03:31:03;-3.80;99.90
28484;DHT22;15704;48.834;8.736;2023-02-28T03:33:39;-3.80;99.90
28484;DHT22;15704;48.834;8.736;2023-02-28T03:36:18;-3.70;99.90
28484;DHT22;15704;48.834;8.736;2023-02-28T03:38:58;-3.70;99.90
28484;DHT22;15704;48.834;8.736;2023-02-28T03:41:37;-3.80;99.90
28484;DHT22;15704;48.834;8.736;2023-02-28T03:44:50;-3.70;99.90
28484;DHT22;15704;48.834;8.736;2023-02-28T03:47:24;-3.70;99.90
28484;DHT22;15704;48.834;8.736;2023-02-28T03:50:13;-3.70;99.90
28484;DHT22;15704;48.834;8.736;2023-02-28T03:52:49;-3.60;99.90
28484;DHT22;15704;48.834;8.736;2023-02-28T03:55:17;-3.70;99.90
28484;DHT22;15704;48.834;8.736;2023-02-28T03:57:56;-3.70;99.90
28484;DHT22;15704;48.834;8.736;2023-02-28T04:00:31;-3.70;99.90
28484;DHT22;15704;48.834;8.736;2023-02-28T04:03:20;-3.70;99.90
28484;DHT22;15704;48.834;8.736;2023-02-28T04:05:54;-3.70;99.90
28484;DHT22;15704;48.834;8.736;2023-02-28T04:08:22;-3.60;99.90
28484;DHT22;15704;48.834;8.736;2023-02-28T04:11:00;-3.70;99.90
28484;DHT22;15704;48.834;8.736;2023-02-28T04:13:32;-3.60;99.90
28484;DHT22;15704;48.834;8.736;2023-02-28T04:15:59;-3.60;99.90
28484;DHT22;15704;48.834;8.736;2023-02-28T04:18:26;-3.60;99.90
28484;DHT22;15704;48.834;8.736;2023-02-28T04:20:53;-3.60;99.90
28484;DHT22;15704;48.834;8.736;2023-02-28T04:23:19;-3.60;99.90
28484;DHT22;15704;48.834;8.736;2023-02-28T04:25:46;-3.60;99.90
28484;DHT22;15704;48.834;8.736;2023-02-28T04:28:13;-3.60;99.90
28484;DHT22;15704;48.834;8.736;2023-02-28T04:30:40;-3.60;99.90
28484;DHT22;15704;48.834;8.736;2023-02-28T04:33:07;-3.60;99.90
28484;DHT22;15704;48.834;8.736;2023-02-28T04:35:33;-3.70;99.90
28484;DHT22;15704;48.834;8.736;2023-02-28T04:38:00;-3.70;99.90
28484;DHT22;15704;48.834;8.736;2023-02-28T04:40:27;-3.80;99.90
28484;DHT22;15704;48.834;8.736;2023-02-28T04:42:54;-3.70;99.90
28484;DHT22;15704;48.834;8.736;2023-02-28T04:45:21;-3.70;99.90
28484;DHT22;15704;48.834;8.736;2023-02-28T04:47:47;-3.80;99.90
28484;DHT22;15704;48.834;8.736;2023-02-28T04:50:14;-3.70;99.90
28484;DHT22;15704;48.834;8.736;2023-02-28T04:52:41;-3.70;99.90
28484;DHT22;15704;48.834;8.736;2023-02-28T04:55:08;-3.60;99.90
28484;DHT22;15704;48.834;8.736;2023-02-28T04:57:35;-3.60;99.90
28484;DHT22;15704;48.834;8.736;2023-02-28T05:00:03;-3.50;99.90
28484;DHT22;15704;48.834;8.736;2023-02-28T05:02:34;-3.40;99.90
28484;DHT22;15704;48.834;8.736;2023-02-28T05:05:02;-3.40;99.90
28484;DHT22;15704;48.834;8.736;2023-02-28T05:07:28;-3.30;99.90
28484;DHT22;15704;48.834;8.736;2023-02-28T05:09:55;-3.40;99.90
28484;DHT22;15704;48.834;8.736;2023-02-28T05:12:22;-3.30;99.90
28484;DHT22;15704;48.834;8.736;2023-02-28T05:14:49;-3.20;99.90
28484;DHT22;15704;48.834;8.736;2023-02-28T05:17:15;-3.10;99.90
28484;DHT22;15704;48.834;8.736;2023-02-28T05:19:43;-3.10;99.90
28484;DHT22;15704;48.834;8.736;2023-02-28T05:22:16;-3.10;99.90
28484;DHT22;15704;48.834;8.736;2023-02-28T05:24:50;-3.00;99.90
28484;DHT22;15704;48.834;8.736;2023-02-28T05:27:17;-2.90;99.90
28484;DHT22;15704;48.834;8.736;2023-02-28T05:29:43;-2.90;99.90
28484;DHT22;15704;48.834;8.736;2023-02-28T05:32:11;-3.10;99.90
28484;DHT22;15704;48.834;8.736;2023-02-28T05:34:38;-3.10;99.90
28484;DHT22;15704;48.834;8.736;2023-02-28T05:37:06;-3.10;99.90
28484;DHT22;15704;48.834;8.736;2023-02-28T05:39:33;-3.10;99.90
28484;DHT22;15704;48.834;8.736;2023-02-28T05:42:03;-3.10;99.90
28484;DHT22;15704;48.834;8.736;2023-02-28T05:44:30;-3.00;99.90
28484;DHT22;15704;48.834;8.736;2023-02-28T05:46:56;-2.90;99.90
28484;DHT22;15704;48.834;8.736;2023-02-28T05:49:23;-3.10;99.90
28484;DHT22;15704;48.834;8.736;2023-02-28T05:51:53;-3.00;99.90
28484;DHT22;15704;48.834;8.736;2023-02-28T05:54:20;-2.90;99.90
28484;DHT22;15704;48.834;8.736;2023-02-28T05:57:00;-2.90;99.90
28484;DHT22;15704;48.834;8.736;2023-02-28T05:59:27;-2.90;99.90
28484;DHT22;15704;48.834;8.736;2023-02-28T06:02:12;-2.90;99.90
28484;DHT22;15704;48.834;8.736;2023-02-28T06:04:41;-3.00;99.90
28484;DHT22;15704;48.834;8.736;2023-02-28T06:07:14;-3.00;99.90
28484;DHT22;15704;48.834;8.736;2023-02-28T06:09:43;-3.00;99.90
28484;DHT22;15704;48.834;8.736;2023-02-28T06:12:10;-2.90;99.90
28484;DHT22;15704;48.834;8.736;2023-02-28T06:14:37;-3.00;99.90
28484;DHT22;15704;48.834;8.736;2023-02-28T06:17:06;-2.90;99.90
28484;DHT22;15704;48.834;8.736;2023-02-28T06:19:33;-2.90;99.90
28484;DHT22;15704;48.834;8.736;2023-02-28T06:22:02;-2.80;99.90
28484;DHT22;15704;48.834;8.736;2023-02-28T06:24:29;-2.90;99.90
28484;DHT22;15704;48.834;8.736;2023-02-28T06:26:57;-2.80;99.90
28484;DHT22;15704;48.834;8.736;2023-02-28T06:29:29;-2.80;99.90
28484;DHT22;15704;48.834;8.736;2023-02-28T06:32:09;-2.80;99.90
28484;DHT22;15704;48.834;8.736;2023-02-28T06:34:36;-2.70;99.90
28484;DHT22;15704;48.834;8.736;2023-02-28T06:37:03;-2.70;99.90
28484;DHT22;15704;48.834;8.736;2023-02-28T06:39:30;-2.50;99.90
28484;DHT22;15704;48.834;8.736;2023-02-28T06:41:57;-2.60;99.90
28484;DHT22;15704;48.834;8.736;2023-02-28T06:44:24;-2.50;99.90
28484;DHT22;15704;48.834;8.736;2023-02-28T06:46:51;-2.50;99.90
28484;DHT22;15704;48.834;8.736;2023-02-28T06:49:17;-2.50;99.90
28484;DHT22;15704;48.834;8.736;2023-02-28T06:51:48;-2.50;99.90
28484;DHT22;15704;48.834;8.736;2023-02-28T06:54:47;-2.40;99.90
28484;DHT22;15704;48.834;8.736;2023-02-28T06:57:29;-2.30;99.90
28484;DHT22;15704;48.834;8.736;2023-02-28T07:00:00;-2.30;99.90
28484;DHT22;15704;48.834;8.736;2023-02-28T07:02:27;-2.30;99.90
28484;DHT22;15704;48.834;8.736;2023-02-28T07:04:54;-2.10;99.90
28484;DHT22;15704;48.834;8.736;2023-02-28T07:07:30;-2.20;99.90
28484;DHT22;15704;48.834;8.736;2023-02-28T07:09:56;-2.40;99.90
28484;DHT22;15704;48.834;8.736;2023-02-28T07:12:23;-2.40;99.90
28484;DHT22;15704;48.834;8.736;2023-02-28T07:14:50;-2.40;99.90
28484;DHT22;15704;48.834;8.736;2023-02-28T07:17:26;-2.40;99.90
28484;DHT22;15704;48.834;8.736;2023-02-28T07:20:01;-2.30;99.90
28484;DHT22;15704;48.834;8.736;2023-02-28T07:22:28;-2.30;99.90
28484;DHT22;15704;48.834;8.736;2023-02-28T07:24:57;-2.40;99.90
28484;DHT22;15704;48.834;8.736;2023-02-28T07:27:33;-2.30;99.90
28484;DHT22;15704;48.834;8.736;2023-02-28T07:30:19;-2.30;99.90
28484;DHT22;15704;48.834;8.736;2023-02-28T07:32:48;-2.50;99.90
28484;DHT22;15704;48.834;8.736;2023-02-28T07:35:15;-2.40;99.90
28484;DHT22;15704;48.834;8.736;2023-02-28T07:37:42;-2.30;99.90
28484;DHT22;15704;48.834;8.736;2023-02-28T07:40:11;-2.20;99.90
28484;DHT22;15704;48.834;8.736;2023-02-28T07:42:38;-2.30;99.90
28484;DHT22;15704;48.834;8.736;2023-02-28T07:45:06;-2.20;99.90
28484;DHT22;15704;48.834;8.736;2023-02-28T07:47:33;-2.10;99.90
28484;DHT22;15704;48.834;8.736;2023-02-28T07:50:00;-2.00;99.90
28484;DHT22;15704;48.834;8.736;2023-02-28T07:52:27;-2.10;99.90
28484;DHT22;15704;48.834;8.736;2023-02-28T07:54:54;-2.20;99.90
28484;DHT22;15704;48.834;8.736;2023-02-28T07:57:20;-2.10;99.90
28484;DHT22;15704;48.834;8.736;2023-02-28T07:59:47;-1.80;99.90
28484;DHT22;15704;48.834;8.736;2023-02-28T08:02:21;-1.90;99.90
28484;DHT22;15704;48.834;8.736;2023-02-28T08:04:54;-1.70;99.90
28484;DHT22;15704;48.834;8.736;2023-02-28T08:07:21;-1.60;99.90
28484;DHT22;15704;48.834;8.736;2023-02-28T08:09:47;-1.50;99.90
28484;DHT22;15704;48.834;8.736;2023-02-28T08:12:14;-1.60;99.90
28484;DHT22;15704;48.834;8.736;2023-02-28T08:14:43;-1.60;99.90
28484;DHT22;15704;48.834;8.736;2023-02-28T08:17:18;-1.50;99.90
28484;DHT22;15704;48.834;8.736;2023-02-28T08:19:52;-1.50;99.90
28484;DHT22;15704;48.834;8.736;2023-02-28T08:22:25;-1.60;99.90
28484;DHT22;15704;48.834;8.736;2023-02-28T08:24:52;-1.40;99.90
28484;DHT22;15704;48.834;8.736;2023-02-28T08:27:19;-1.50;99.90
28484;DHT22;15704;48.834;8.736;2023-02-28T08:29:55;-1.60;99.90
28484;DHT22;15704;48.834;8.736;2023-02-28T08:32:22;-1.70;99.90
28484;DHT22;15704;48.834;8.736;2023-02-28T08:34:55;-1.70;99.90
28484;DHT22;15704;48.834;8.736;2023-02-28T08:37:22;-1.50;99.90
28484;DHT22;15704;48.834;8.736;2023-02-28T08:39:52;-1.50;99.90
28484;DHT22;15704;48.834;8.736;2023-02-28T08:42:23;-1.60;99.90
28484;DHT22;15704;48.834;8.736;2023-02-28T08:44:53;-1.60;99.90
28484;DHT22;15704;48.834;8.736;2023-02-28T08:47:26;-1.80;99.90
28484;DHT22;15704;48.834;8.736;2023-02-28T08:49:53;-1.70;99.90
28484;DHT22;15704;48.834;8.736;2023-02-28T08:52:27;-1.70;99.90
28484;DHT22;15704;48.834;8.736;2023-02-28T08:54:59;-1.50;99.90
28484;DHT22;15704;48.834;8.736;2023-02-28T08:57:26;-1.30;99.90
28484;DHT22;15704;48.834;8.736;2023-02-28T08:59:59;-1.10;99.90
28484;DHT22;15704;48.834;8.736;2023-02-28T09:02:36;-1.00;99.90
28484;DHT22;15704;48.834;8.736;2023-02-28T09:05:11;-0.90;99.90
28484;DHT22;15704;48.834;8.736;2023-02-28T09:07:37;-1.00;99.90
28484;DHT22;15704;48.834;8.736;2023-02-28T09:10:04;-1.40;99.90
28484;DHT22;15704;48.834;8.736;2023-02-28T09:12:42;-1.40;99.90
28484;DHT22;15704;48.834;8.736;2023-02-28T09:15:12;-1.20;99.90
28484;DHT22;15704;48.834;8.736;2023-02-28T09:17:39;-1.30;99.90
28484;DHT22;15704;48.834;8.736;2023-02-28T09:20:06;-1.00;99.90
28484;DHT22;15704;48.834;8.736;2023-02-28T09:22:33;-1.20;99.90
28484;DHT22;15704;48.834;8.736;2023-02-28T09:25:00;-1.10;99.90
28484;DHT22;15704;48.834;8.736;2023-02-28T09:27:38;-0.80;99.90
28484;DHT22;15704;48.834;8.736;2023-02-28T09:30:05;-0.80;99.90
28484;DHT22;15704;48.834;8.736;2023-02-28T09:32:35;-0.60;99.90
28484;DHT22;15704;48.834;8.736;2023-02-28T09:35:07;-0.60;99.90
28484;DHT22;15704;48.834;8.736;2023-02-28T09:37:42;-0.90;99.90
28484;DHT22;15704;48.834;8.736;2023-02-28T09:40:10;-0.90;99.90
28484;DHT22;15704;48.834;8.736;2023-02-28T09:42:38;-0.60;99.90
28484;DHT22;15704;48.834;8.736;2023-02-28T09:47:48;-0.60;99.90
28484;DHT22;15704;48.834;8.736;2023-02-28T09:50:36;-0.50;99.90
28484;DHT22;15704;48.834;8.736;2023-02-28T09:56:47;-0.50;99.90
28484;DHT22;15704;48.834;8.736;2023-02-28T10:01:39;-0.30;99.90
28484;DHT22;15704;48.834;8.736;2023-02-28T10:06:46;0.00;99.90
28484;DHT22;15704;48.834;8.736;2023-02-28T10:11:50;-0.10;99.90
28484;DHT22;15704;48.834;8.736;2023-02-28T10:14:24;0.10;99.90
28484;DHT22;15704;48.834;8.736;2023-02-28T10:22:03;0.50;99.90
28484;DHT22;15704;48.834;8.736;2023-02-28T10:27:14;0.20;99.90
28484;DHT22;15704;48.834;8.736;2023-02-28T10:29:49;0.30;99.90
28484;DHT22;15704;48.834;8.736;2023-02-28T10:32:26;0.30;99.90
28484;DHT22;15704;48.834;8.736;2023-02-28T10:35:19;0.00;99.90
28484;DHT22;15704;48.834;8.736;2023-02-28T10:38:09;-0.10;99.90
28484;DHT22;15704;48.834;8.736;2023-02-28T10:40:40;0.10;99.90
28484;DHT22;15704;48.834;8.736;2023-02-28T10:48:39;0.30;99.90
28484;DHT22;15704;48.834;8.736;2023-02-28T10:51:11;0.50;99.90
28484;DHT22;15704;48.834;8.736;2023-02-28T10:53:48;1.00;99.90
28484;DHT22;15704;48.834;8.736;2023-02-28T10:56:28;1.00;99.90
28484;DHT22;15704;48.834;8.736;2023-02-28T10:59:24;1.10;99.90
28484;DHT22;15704;48.834;8.736;2023-02-28T11:01:57;1.30;99.90
28484;DHT22;15704;48.834;8.736;2023-02-28T11:07:01;0.80;99.90
28484;DHT22;15704;48.834;8.736;2023-02-28T11:09:34;0.80;99.90
28484;DHT22;15704;48.834;8.736;2023-02-28T11:12:17;1.00;99.90
28484;DHT22;15704;48.834;8.736;2023-02-28T11:15:39;1.20;99.90
28484;DHT22;15704;48.834;8.736;2023-02-28T11:17:40;1.30;99.90
28484;DHT22;15704;48.834;8.736;2023-02-28T11:20:18;1.50;99.90
28484;DHT22;15704;48.834;8.736;2023-02-28T11:22:54;1.40;99.90
28484;DHT22;15704;48.834;8.736;2023-02-28T11:25:35;1.30;99.90
28484;DHT22;15704;48.834;8.736;2023-02-28T11:28:05;1.80;99.90
28484;DHT22;15704;48.834;8.736;2023-02-28T11:30:40;1.70;99.90
28484;DHT22;15704;48.834;8.736;2023-02-28T11:33:27;1.60;99.90
28484;DHT22;15704;48.834;8.736;2023-02-28T11:36:08;1.60;99.90
28484;DHT22;15704;48.834;8.736;2023-02-28T11:38:36;1.80;99.90
28484;DHT22;15704;48.834;8.736;2023-02-28T11:43:57;2.40;99.90
28484;DHT22;15704;48.834;8.736;2023-02-28T11:46:41;2.50;99.90
28484;DHT22;15704;48.834;8.736;2023-02-28T12:00:32;2.70;99.90
28484;DHT22;15704;48.834;8.736;2023-02-28T12:05:44;2.40;99.90
28484;DHT22;15704;48.834;8.736;2023-02-28T12:08:53;2.70;99.90
28484;DHT22;15704;48.834;8.736;2023-02-28T12:11:45;2.50;99.90
28484;DHT22;15704;48.834;8.736;2023-02-28T12:20:17;2.20;99.90
28484;DHT22;15704;48.834;8.736;2023-02-28T12:23:14;2.00;99.90
28484;DHT22;15704;48.834;8.736;2023-02-28T12:28:49;2.80;99.90
28484;DHT22;15704;48.834;8.736;2023-02-28T12:31:24;2.90;99.90
28484;DHT22;15704;48.834;8.736;2023-02-28T12:33:53;2.90;99.90
28484;DHT22;15704;48.834;8.736;2023-02-28T12:36:21;2.70;99.90
28484;DHT22;15704;48.834;8.736;2023-02-28T12:39:01;2.40;99.90
28484;DHT22;15704;48.834;8.736;2023-02-28T12:41:40;2.10;99.90
28484;DHT22;15704;48.834;8.736;2023-02-28T12:44:49;1.90;99.90
28484;DHT22;15704;48.834;8.736;2023-02-28T12:47:18;1.90;99.90
28484;DHT22;15704;48.834;8.736;2023-02-28T12:49:51;2.00;99.90
28484;DHT22;15704;48.834;8.736;2023-02-28T12:53:08;2.30;99.90
28484;DHT22;15704;48.834;8.736;2023-02-28T13:06:34;2.00;99.90
28484;DHT22;15704;48.834;8.736;2023-02-28T13:09:12;2.00;99.90
28484;DHT22;15704;48.834;8.736;2023-02-28T13:11:44;2.10;99.90
28484;DHT22;15704;48.834;8.736;2023-02-28T13:19:56;3.50;99.90
28484;DHT22;15704;48.834;8.736;2023-02-28T13:22:37;3.40;99.90
28484;DHT22;15704;48.834;8.736;2023-02-28T13:27:53;3.10;99.90
28484;DHT22;15704;48.834;8.736;2023-02-28T13:38:48;3.00;99.90
28484;DHT22;15704;48.834;8.736;2023-02-28T13:41:40;3.10;99.90
28484;DHT22;15704;48.834;8.736;2023-02-28T13:44:17;3.50;99.90
28484;DHT22;15704;48.834;8.736;2023-02-28T13:49:31;3.10;99.90
28484;DHT22;15704;48.834;8.736;2023-02-28T13:55:18;3.40;99.90
28484;DHT22;15704;48.834;8.736;2023-02-28T14:06:17;3.00;99.90
28484;DHT22;15704;48.834;8.736;2023-02-28T14:08:55;2.80;99.90
28484;DHT22;15704;48.834;8.736;2023-02-28T14:11:29;2.70;99.90
28484;DHT22;15704;48.834;8.736;2023-02-28T14:13:56;2.80;99.90
28484;DHT22;15704;48.834;8.736;2023-02-28T14:16:25;3.00;99.90
28484;DHT22;15704;48.834;8.736;2023-02-28T14:19:31;3.20;99.90
28484;DHT22;15704;48.834;8.736;2023-02-28T14:38:25;3.50;99.90
28484;DHT22;15704;48.834;8.736;2023-02-28T14:40:56;3.50;99.90
28484;DHT22;15704;48.834;8.736;2023-02-28T14:43:27;3.50;99.90
28484;DHT22;15704;48.834;8.736;2023-02-28T14:46:00;3.70;99.90
28484;DHT22;15704;48.834;8.736;2023-02-28T14:48:27;3.80;99.90
28484;DHT22;15704;48.834;8.736;2023-02-28T14:50:59;3.90;99.90
28484;DHT22;15704;48.834;8.736;2023-02-28T14:53:35;4.20;99.90
28484;DHT22;15704;48.834;8.736;2023-02-28T14:56:03;4.00;99.90
28484;DHT22;15704;48.834;8.736;2023-02-28T14:58:31;3.70;99.90
28484;DHT22;15704;48.834;8.736;2023-02-28T15:01:03;3.60;99.90
28484;DHT22;15704;48.834;8.736;2023-02-28T15:03:33;3.50;99.90
28484;DHT22;15704;48.834;8.736;2023-02-28T15:06:05;3.50;99.90
28484;DHT22;15704;48.834;8.736;2023-02-28T15:08:33;3.30;99.90
28484;DHT22;15704;48.834;8.736;2023-02-28T15:11:06;3.30;99.90
28484;DHT22;15704;48.834;8.736;2023-02-28T15:13:43;3.20;99.90
28484;DHT22;15704;48.834;8.736;2023-02-28T15:16:12;3.10;99.90
28484;DHT22;15704;48.834;8.736;2023-02-28T15:18:49;2.80;99.90
28484;DHT22;15704;48.834;8.736;2023-02-28T15:21:21;2.90;99.90
28484;DHT22;15704;48.834;8.736;2023-02-28T15:26:27;3.00;99.90
28484;DHT22;15704;48.834;8.736;2023-02-28T15:29:10;2.80;99.90
28484;DHT22;15704;48.834;8.736;2023-02-28T15:31:45;2.90;99.90
28484;DHT22;15704;48.834;8.736;2023-02-28T15:34:33;2.90;99.90
28484;DHT22;15704;48.834;8.736;2023-02-28T15:39:55;2.90;99.90
28484;DHT22;15704;48.834;8.736;2023-02-28T15:42:23;2.90;99.90
28484;DHT22;15704;48.834;8.736;2023-02-28T15:44:54;2.80;99.90
28484;DHT22;15704;48.834;8.736;2023-02-28T15:47:26;2.70;99.90
28484;DHT22;15704;48.834;8.736;2023-02-28T15:49:57;2.80;99.90
28484;DHT22;15704;48.834;8.736;2023-02-28T15:52:38;2.70;99.90
28484;DHT22;15704;48.834;8.736;2023-02-28T15:55:16;2.50;99.90
28484;DHT22;15704;48.834;8.736;2023-02-28T15:57:45;2.50;99.90
28484;DHT22;15704;48.834;8.736;2023-02-28T16:00:18;2.40;99.90
28484;DHT22;15704;48.834;8.736;2023-02-28T16:02:45;2.30;99.90
28484;DHT22;15704;48.834;8.736;2023-02-28T16:05:28;2.30;99.90
28484;DHT22;15704;48.834;8.736;2023-02-28T16:08:14;2.30;99.90
28484;DHT22;15704;48.834;8.736;2023-02-28T16:10:42;2.20;99.90
28484;DHT22;15704;48.834;8.736;2023-02-28T16:13:11;2.20;99.90
28484;DHT22;15704;48.834;8.736;2023-02-28T16:15:43;2.20;99.90
28484;DHT22;15704;48.834;8.736;2023-02-28T16:18:11;2.10;99.90
28484;DHT22;15704;48.834;8.736;2023-02-28T16:20:39;2.10;99.90
28484;DHT22;15704;48.834;8.736;2023-02-28T16:23:06;2.10;99.90
28484;DHT22;15704;48.834;8.736;2023-02-28T16:25:36;2.10;99.90
28484;DHT22;15704;48.834;8.736;2023-02-28T16:28:18;2.10;99.90
28484;DHT22;15704;48.834;8.736;2023-02-28T16:30:46;2.10;99.90
28484;DHT22;15704;48.834;8.736;2023-02-28T16:33:13;2.00;99.90
28484;DHT22;15704;48.834;8.736;2023-02-28T16:35:39;1.90;99.90
28484;DHT22;15704;48.834;8.736;2023-02-28T16:38:06;1.90;99.90
28484;DHT22;15704;48.834;8.736;2023-02-28T16:40:34;1.90;99.90
28484;DHT22;15704;48.834;8.736;2023-02-28T16:43:05;1.90;99.90
28484;DHT22;15704;48.834;8.736;2023-02-28T16:45:33;1.80;99.90
28484;DHT22;15704;48.834;8.736;2023-02-28T16:48:00;1.80;99.90
28484;DHT22;15704;48.834;8.736;2023-02-28T16:50:29;1.70;99.90
28484;DHT22;15704;48.834;8.736;2023-02-28T16:52:56;1.60;99.90
28484;DHT22;15704;48.834;8.736;2023-02-28T16:55:24;1.60;99.90
28484;DHT22;15704;48.834;8.736;2023-02-28T16:57:56;1.50;99.90
28484;DHT22;15704;48.834;8.736;2023-02-28T17:00:24;1.50;99.90
28484;DHT22;15704;48.834;8.736;2023-02-28T17:02:51;1.40;99.90
28484;DHT22;15704;48.834;8.736;2023-02-28T17:05:18;1.40;99.90
28484;DHT22;15704;48.834;8.736;2023-02-28T17:07:49;1.30;99.90
28484;DHT22;15704;48.834;8.736;2023-02-28T17:10:26;1.20;99.90
28484;DHT22;15704;48.834;8.736;2023-02-28T17:12:53;1.10;99.90
28484;DHT22;15704;48.834;8.736;2023-02-28T17:15:28;1.10;99.90
28484;DHT22;15704;48.834;8.736;2023-02-28T17:17:56;1.10;99.90
28484;DHT22;15704;48.834;8.736;2023-02-28T17:20:23;1.00;99.90
28484;DHT22;15704;48.834;8.736;2023-02-28T17:22:51;1.00;99.90
28484;DHT22;15704;48.834;8.736;2023-02-28T17:25:19;0.90;99.90
28484;DHT22;15704;48.834;8.736;2023-02-28T17:27:46;0.90;99.90
28484;DHT22;15704;48.834;8.736;2023-02-28T17:30:23;0.80;99.90
28484;DHT22;15704;48.834;8.736;2023-02-28T17:32:50;0.80;99.90
28484;DHT22;15704;48.834;8.736;2023-02-28T17:35:17;0.80;99.90
28484;DHT22;15704;48.834;8.736;2023-02-28T17:37:44;0.70;99.90
28484;DHT22;15704;48.834;8.736;2023-02-28T17:40:23;0.70;99.90
28484;DHT22;15704;48.834;8.736;2023-02-28T17:42:50;0.70;99.90
28484;DHT22;15704;48.834;8.736;2023-02-28T17:45:18;0.60;99.90
28484;DHT22;15704;48.834;8.736;2023-02-28T17:47:48;0.60;99.90
28484;DHT22;15704;48.834;8.736;2023-02-28T17:50:21;0.60;99.90
28484;DHT22;15704;48.834;8.736;2023-02-28T17:52:48;0.60;99.90
28484;DHT22;15704;48.834;8.736;2023-02-28T17:55:19;0.50;99.90
28484;DHT22;15704;48.834;8.736;2023-02-28T17:57:48;0.50;99.90
28484;DHT22;15704;48.834;8.736;2023-02-28T18:00:17;0.50;99.90
28484;DHT22;15704;48.834;8.736;2023-02-28T18:02:44;0.40;99.90
28484;DHT22;15704;48.834;8.736;2023-02-28T18:05:11;0.40;99.90
28484;DHT22;15704;48.834;8.736;2023-02-28T18:07:39;0.40;99.90
28484;DHT22;15704;48.834;8.736;2023-02-28T18:10:09;0.30;99.90
28484;DHT22;15704;48.834;8.736;2023-02-28T18:12:37;0.40;99.90
28484;DHT22;15704;48.834;8.736;2023-02-28T18:15:05;0.30;99.90
28484;DHT22;15704;48.834;8.736;2023-02-28T18:17:32;0.30;99.90
28484;DHT22;15704;48.834;8.736;2023-02-28T18:20:02;0.30;99.90
28484;DHT22;15704;48.834;8.736;2023-02-28T18:22:30;0.30;99.90
28484;DHT22;15704;48.834;8.736;2023-02-28T18:24:58;0.30;99.90
28484;DHT22;15704;48.834;8.736;2023-02-28T18:27:24;0.20;99.90
28484;DHT22;15704;48.834;8.736;2023-02-28T18:29:51;0.20;99.90
28484;DHT22;15704;48.834;8.736;2023-02-28T18:32:18;0.20;99.90
28484;DHT22;15704;48.834;8.736;2023-02-28T18:34:45;0.20;99.90
28484;DHT22;15704;48.834;8.736;2023-02-28T18:37:11;0.20;99.90
28484;DHT22;15704;48.834;8.736;2023-02-28T18:39:39;0.20;99.90
28484;DHT22;15704;48.834;8.736;2023-02-28T18:42:06;0.20;99.90